sensor_id;sensor_type;location;lat;lon;timestamp;P1;durP1;ratioP1;P2;durP2;ratioP2
23578;SDS011;11967;50.852;4.400;2022-09-24T00:01:52;16.67;;;11.13;;
23578;SDS011;11967;50.852;4.400;2022-09-24T00:04:18;15.35;;;11.10;;
23578;SDS011;11967;50.852;4.400;2022-09-24T00:06:45;15.68;;;11.15;;
23578;SDS011;11967;50.852;4.400;2022-09-24T00:09:12;17.67;;;11.20;;
23578;SDS011;11967;50.852;4.400;2022-09-24T00:11:40;16.42;;;11.13;;
23578;SDS011;11967;50.852;4.400;2022-09-24T00:14:10;15.85;;;11.75;;
23578;SDS011;11967;50.852;4.400;2022-09-24T00:16:36;17.20;;;10.68;;
23578;SDS011;11967;50.852;4.400;2022-09-24T00:19:04;15.45;;;10.45;;
23578;SDS011;11967;50.852;4.400;2022-09-24T00:21:31;15.57;;;9.88;;
23578;SDS011;11967;50.852;4.400;2022-09-24T00:23:59;17.73;;;9.90;;
23578;SDS011;11967;50.852;4.400;2022-09-24T00:26:26;13.77;;;9.98;;
23578;SDS011;11967;50.852;4.400;2022-09-24T00:29:11;14.50;;;9.90;;
23578;SDS011;11967;50.852;4.400;2022-09-24T00:31:39;14.32;;;10.00;;
23578;SDS011;11967;50.852;4.400;2022-09-24T00:34:05;14.68;;;9.98;;
23578;SDS011;11967;50.852;4.400;2022-09-24T00:36:31;14.00;;;10.35;;
23578;SDS011;11967;50.852;4.400;2022-09-24T00:38:57;15.10;;;10.00;;
23578;SDS011;11967;50.852;4.400;2022-09-24T00:41:25;15.05;;;9.82;;
23578;SDS011;11967;50.852;4.400;2022-09-24T00:43:56;13.77;;;9.77;;
23578;SDS011;11967;50.852;4.400;2022-09-24T00:49:17;15.07;;;9.88;;
23578;SDS011;11967;50.852;4.400;2022-09-24T00:51:43;13.13;;;9.88;;
23578;SDS011;11967;50.852;4.400;2022-09-24T00:54:22;13.80;;;10.30;;
23578;SDS011;11967;50.852;4.400;2022-09-24T00:56:50;13.63;;;9.88;;
23578;SDS011;11967;50.852;4.400;2022-09-24T00:59:17;16.15;;;10.52;;
23578;SDS011;11967;50.852;4.400;2022-09-24T01:01:47;14.68;;;10.57;;
23578;SDS011;11967;50.852;4.400;2022-09-24T01:04:13;15.85;;;11.07;;
23578;SDS011;11967;50.852;4.400;2022-09-24T01:06:45;17.85;;;11.20;;
23578;SDS011;11967;50.852;4.400;2022-09-24T01:09:11;17.40;;;12.35;;
23578;SDS011;11967;50.852;4.400;2022-09-24T01:14:41;19.88;;;13.38;;
23578;SDS011;11967;50.852;4.400;2022-09-24T01:17:23;22.17;;;14.10;;
23578;SDS011;11967;50.852;4.400;2022-09-24T01:20:18;20.80;;;14.65;;
23578;SDS011;11967;50.852;4.400;2022-09-24T01:30:43;22.27;;;14.35;;
23578;SDS011;11967;50.852;4.400;2022-09-24T01:33:18;22.15;;;14.10;;
23578;SDS011;11967;50.852;4.400;2022-09-24T01:35:50;20.02;;;14.10;;
23578;SDS011;11967;50.852;4.400;2022-09-24T01:38:20;20.77;;;15.23;;
23578;SDS011;11967;50.852;4.400;2022-09-24T01:40:55;23.05;;;14.63;;
23578;SDS011;11967;50.852;4.400;2022-09-24T01:43:24;21.02;;;14.52;;
23578;SDS011;11967;50.852;4.400;2022-09-24T01:45:52;20.67;;;14.63;;
23578;SDS011;11967;50.852;4.400;2022-09-24T01:48:23;21.35;;;14.50;;
23578;SDS011;11967;50.852;4.400;2022-09-24T01:50:50;22.83;;;14.73;;
23578;SDS011;11967;50.852;4.400;2022-09-24T01:53:28;23.33;;;15.00;;
23578;SDS011;11967;50.852;4.400;2022-09-24T01:56:01;21.70;;;14.65;;
23578;SDS011;11967;50.852;4.400;2022-09-24T01:58:33;21.40;;;14.77;;
23578;SDS011;11967;50.852;4.400;2022-09-24T02:01:13;20.02;;;13.60;;
23578;SDS011;11967;50.852;4.400;2022-09-24T02:03:49;17.52;;;13.13;;
23578;SDS011;11967;50.852;4.400;2022-09-24T02:06:22;17.90;;;12.93;;
23578;SDS011;11967;50.852;4.400;2022-09-24T02:09:04;23.88;;;14.27;;
23578;SDS011;11967;50.852;4.400;2022-09-24T02:11:31;21.13;;;14.63;;
23578;SDS011;11967;50.852;4.400;2022-09-24T02:14:07;18.83;;;14.45;;
23578;SDS011;11967;50.852;4.400;2022-09-24T02:16:39;22.02;;;13.80;;
23578;SDS011;11967;50.852;4.400;2022-09-24T02:19:10;20.42;;;13.52;;
23578;SDS011;11967;50.852;4.400;2022-09-24T02:21:40;19.42;;;13.05;;
23578;SDS011;11967;50.852;4.400;2022-09-24T02:24:12;19.23;;;13.55;;
23578;SDS011;11967;50.852;4.400;2022-09-24T02:26:41;19.80;;;13.60;;
23578;SDS011;11967;50.852;4.400;2022-09-24T02:29:07;21.42;;;14.45;;
23578;SDS011;11967;50.852;4.400;2022-09-24T02:31:37;20.40;;;14.10;;
23578;SDS011;11967;50.852;4.400;2022-09-24T02:34:06;20.70;;;14.60;;
23578;SDS011;11967;50.852;4.400;2022-09-24T02:37:06;19.65;;;14.30;;
23578;SDS011;11967;50.852;4.400;2022-09-24T02:39:34;18.98;;;13.75;;
23578;SDS011;11967;50.852;4.400;2022-09-24T02:42:00;20.70;;;13.55;;
23578;SDS011;11967;50.852;4.400;2022-09-24T02:44:29;20.52;;;13.75;;
23578;SDS011;11967;50.852;4.400;2022-09-24T02:46:58;18.10;;;13.10;;
23578;SDS011;11967;50.852;4.400;2022-09-24T02:49:24;20.48;;;13.02;;
23578;SDS011;11967;50.852;4.400;2022-09-24T02:51:50;18.70;;;13.25;;
23578;SDS011;11967;50.852;4.400;2022-09-24T02:54:16;20.05;;;13.27;;
23578;SDS011;11967;50.852;4.400;2022-09-24T02:56:41;21.38;;;14.35;;
23578;SDS011;11967;50.852;4.400;2022-09-24T02:59:07;22.25;;;14.35;;
23578;SDS011;11967;50.852;4.400;2022-09-24T03:01:33;19.55;;;13.57;;
23578;SDS011;11967;50.852;4.400;2022-09-24T03:03:59;21.98;;;15.07;;
23578;SDS011;11967;50.852;4.400;2022-09-24T03:06:26;22.35;;;14.35;;
23578;SDS011;11967;50.852;4.400;2022-09-24T03:08:52;18.67;;;13.35;;
23578;SDS011;11967;50.852;4.400;2022-09-24T03:11:18;21.48;;;14.30;;
23578;SDS011;11967;50.852;4.400;2022-09-24T03:13:47;20.55;;;13.45;;
23578;SDS011;11967;50.852;4.400;2022-09-24T03:16:14;19.08;;;14.13;;
23578;SDS011;11967;50.852;4.400;2022-09-24T03:18:40;20.60;;;14.50;;
23578;SDS011;11967;50.852;4.400;2022-09-24T03:21:07;20.48;;;15.05;;
23578;SDS011;11967;50.852;4.400;2022-09-24T03:23:36;22.92;;;14.80;;
23578;SDS011;11967;50.852;4.400;2022-09-24T03:26:03;21.92;;;14.73;;
23578;SDS011;11967;50.852;4.400;2022-09-24T03:28:29;21.27;;;14.55;;
23578;SDS011;11967;50.852;4.400;2022-09-24T03:30:55;19.35;;;13.77;;
23578;SDS011;11967;50.852;4.400;2022-09-24T03:33:28;20.85;;;14.75;;
23578;SDS011;11967;50.852;4.400;2022-09-24T03:38:30;21.70;;;15.60;;
23578;SDS011;11967;50.852;4.400;2022-09-24T03:40:56;23.38;;;16.42;;
23578;SDS011;11967;50.852;4.400;2022-09-24T03:43:22;21.35;;;15.38;;
23578;SDS011;11967;50.852;4.400;2022-09-24T03:45:49;22.33;;;15.57;;
23578;SDS011;11967;50.852;4.400;2022-09-24T03:48:15;20.35;;;14.57;;
23578;SDS011;11967;50.852;4.400;2022-09-24T03:50:41;21.88;;;15.10;;
23578;SDS011;11967;50.852;4.400;2022-09-24T03:53:07;21.98;;;15.10;;
23578;SDS011;11967;50.852;4.400;2022-09-24T03:55:33;22.48;;;15.57;;
23578;SDS011;11967;50.852;4.400;2022-09-24T03:57:59;20.90;;;15.20;;
23578;SDS011;11967;50.852;4.400;2022-09-24T04:00:26;21.35;;;14.98;;
23578;SDS011;11967;50.852;4.400;2022-09-24T04:02:52;23.60;;;15.18;;
23578;SDS011;11967;50.852;4.400;2022-09-24T04:05:18;21.95;;;15.57;;
23578;SDS011;11967;50.852;4.400;2022-09-24T04:07:44;22.27;;;15.15;;
23578;SDS011;11967;50.852;4.400;2022-09-24T04:10:10;23.60;;;15.15;;
23578;SDS011;11967;50.852;4.400;2022-09-24T04:12:36;24.42;;;15.45;;
23578;SDS011;11967;50.852;4.400;2022-09-24T04:15:02;21.05;;;15.63;;
23578;SDS011;11967;50.852;4.400;2022-09-24T04:17:28;23.65;;;16.55;;
23578;SDS011;11967;50.852;4.400;2022-09-24T04:19:57;22.63;;;16.05;;
23578;SDS011;11967;50.852;4.400;2022-09-24T04:22:23;25.25;;;17.10;;
23578;SDS011;11967;50.852;4.400;2022-09-24T04:24:50;25.67;;;16.98;;
23578;SDS011;11967;50.852;4.400;2022-09-24T04:27:16;26.30;;;17.23;;
23578;SDS011;11967;50.852;4.400;2022-09-24T04:29:42;22.92;;;16.23;;
23578;SDS011;11967;50.852;4.400;2022-09-24T04:32:08;27.23;;;17.08;;
23578;SDS011;11967;50.852;4.400;2022-09-24T04:34:33;25.60;;;17.17;;
23578;SDS011;11967;50.852;4.400;2022-09-24T04:36:59;23.70;;;15.82;;
23578;SDS011;11967;50.852;4.400;2022-09-24T04:39:25;25.58;;;16.95;;
23578;SDS011;11967;50.852;4.400;2022-09-24T04:41:54;22.05;;;16.23;;
23578;SDS011;11967;50.852;4.400;2022-09-24T04:44:20;26.45;;;17.13;;
23578;SDS011;11967;50.852;4.400;2022-09-24T04:46:46;23.25;;;16.65;;
23578;SDS011;11967;50.852;4.400;2022-09-24T04:49:12;23.23;;;15.93;;
23578;SDS011;11967;50.852;4.400;2022-09-24T04:51:38;21.58;;;15.82;;
23578;SDS011;11967;50.852;4.400;2022-09-24T04:54:04;21.10;;;15.77;;
23578;SDS011;11967;50.852;4.400;2022-09-24T04:56:30;24.02;;;16.33;;
23578;SDS011;11967;50.852;4.400;2022-09-24T04:58:56;23.23;;;16.50;;
23578;SDS011;11967;50.852;4.400;2022-09-24T05:01:22;22.88;;;16.50;;
23578;SDS011;11967;50.852;4.400;2022-09-24T05:03:48;23.48;;;16.67;;
23578;SDS011;11967;50.852;4.400;2022-09-24T05:06:14;25.90;;;17.00;;
23578;SDS011;11967;50.852;4.400;2022-09-24T05:08:39;22.75;;;15.82;;
23578;SDS011;11967;50.852;4.400;2022-09-24T05:11:05;23.80;;;17.08;;
23578;SDS011;11967;50.852;4.400;2022-09-24T05:13:31;22.67;;;16.52;;
23578;SDS011;11967;50.852;4.400;2022-09-24T05:15:57;25.58;;;16.38;;
23578;SDS011;11967;50.852;4.400;2022-09-24T05:18:24;24.10;;;16.25;;
23578;SDS011;11967;50.852;4.400;2022-09-24T05:20:50;28.75;;;16.67;;
23578;SDS011;11967;50.852;4.400;2022-09-24T05:23:16;21.27;;;15.45;;
23578;SDS011;11967;50.852;4.400;2022-09-24T05:25:42;23.60;;;15.90;;
23578;SDS011;11967;50.852;4.400;2022-09-24T05:28:26;23.40;;;16.40;;
23578;SDS011;11967;50.852;4.400;2022-09-24T05:30:55;24.65;;;17.70;;
23578;SDS011;11967;50.852;4.400;2022-09-24T05:33:21;23.27;;;15.40;;
23578;SDS011;11967;50.852;4.400;2022-09-24T05:35:51;23.63;;;16.60;;
23578;SDS011;11967;50.852;4.400;2022-09-24T05:38:21;22.40;;;15.50;;
23578;SDS011;11967;50.852;4.400;2022-09-24T05:40:47;27.30;;;16.02;;
23578;SDS011;11967;50.852;4.400;2022-09-24T05:43:14;25.25;;;16.85;;
23578;SDS011;11967;50.852;4.400;2022-09-24T05:45:43;21.00;;;15.45;;
23578;SDS011;11967;50.852;4.400;2022-09-24T05:48:09;27.95;;;16.55;;
23578;SDS011;11967;50.852;4.400;2022-09-24T05:50:35;22.40;;;15.60;;
23578;SDS011;11967;50.852;4.400;2022-09-24T05:53:01;23.05;;;15.75;;
23578;SDS011;11967;50.852;4.400;2022-09-24T05:55:28;23.67;;;15.93;;
23578;SDS011;11967;50.852;4.400;2022-09-24T05:57:53;24.05;;;15.60;;
23578;SDS011;11967;50.852;4.400;2022-09-24T06:00:19;24.92;;;16.63;;
23578;SDS011;11967;50.852;4.400;2022-09-24T06:02:45;25.52;;;16.58;;
23578;SDS011;11967;50.852;4.400;2022-09-24T06:05:11;24.58;;;16.20;;
23578;SDS011;11967;50.852;4.400;2022-09-24T06:07:37;23.55;;;16.52;;
23578;SDS011;11967;50.852;4.400;2022-09-24T06:10:03;27.08;;;17.10;;
23578;SDS011;11967;50.852;4.400;2022-09-24T06:12:31;26.92;;;16.88;;
23578;SDS011;11967;50.852;4.400;2022-09-24T06:14:59;27.48;;;17.35;;
23578;SDS011;11967;50.852;4.400;2022-09-24T06:17:25;25.33;;;16.85;;
23578;SDS011;11967;50.852;4.400;2022-09-24T06:19:52;28.35;;;18.25;;
23578;SDS011;11967;50.852;4.400;2022-09-24T06:22:18;23.50;;;16.58;;
23578;SDS011;11967;50.852;4.400;2022-09-24T06:24:45;28.00;;;18.52;;
23578;SDS011;11967;50.852;4.400;2022-09-24T06:27:11;26.35;;;17.23;;
23578;SDS011;11967;50.852;4.400;2022-09-24T06:29:36;24.23;;;16.48;;
23578;SDS011;11967;50.852;4.400;2022-09-24T06:32:02;26.98;;;16.13;;
23578;SDS011;11967;50.852;4.400;2022-09-24T06:34:28;28.25;;;17.63;;
23578;SDS011;11967;50.852;4.400;2022-09-24T06:36:54;26.00;;;15.80;;
23578;SDS011;11967;50.852;4.400;2022-09-24T06:39:22;24.20;;;16.23;;
23578;SDS011;11967;50.852;4.400;2022-09-24T06:41:48;26.50;;;16.73;;
23578;SDS011;11967;50.852;4.400;2022-09-24T06:44:15;26.17;;;16.42;;
23578;SDS011;11967;50.852;4.400;2022-09-24T06:46:41;25.00;;;17.13;;
23578;SDS011;11967;50.852;4.400;2022-09-24T06:49:07;23.15;;;16.10;;
23578;SDS011;11967;50.852;4.400;2022-09-24T06:51:33;27.50;;;17.00;;
23578;SDS011;11967;50.852;4.400;2022-09-24T06:53:58;27.42;;;16.80;;
23578;SDS011;11967;50.852;4.400;2022-09-24T06:56:24;29.85;;;17.73;;
23578;SDS011;11967;50.852;4.400;2022-09-24T06:58:50;30.80;;;17.15;;
23578;SDS011;11967;50.852;4.400;2022-09-24T07:01:15;27.73;;;16.98;;
23578;SDS011;11967;50.852;4.400;2022-09-24T07:03:41;30.45;;;17.10;;
23578;SDS011;11967;50.852;4.400;2022-09-24T07:06:06;25.75;;;17.35;;
23578;SDS011;11967;50.852;4.400;2022-09-24T07:08:32;25.92;;;16.65;;
23578;SDS011;11967;50.852;4.400;2022-09-24T07:10:58;27.83;;;17.35;;
23578;SDS011;11967;50.852;4.400;2022-09-24T07:13:24;25.13;;;17.10;;
23578;SDS011;11967;50.852;4.400;2022-09-24T07:15:50;25.45;;;17.15;;
23578;SDS011;11967;50.852;4.400;2022-09-24T07:18:17;24.15;;;16.90;;
23578;SDS011;11967;50.852;4.400;2022-09-24T07:20:44;27.60;;;17.33;;
23578;SDS011;11967;50.852;4.400;2022-09-24T07:23:15;25.77;;;17.45;;
23578;SDS011;11967;50.852;4.400;2022-09-24T07:25:42;25.65;;;17.75;;
23578;SDS011;11967;50.852;4.400;2022-09-24T07:28:10;28.35;;;17.52;;
23578;SDS011;11967;50.852;4.400;2022-09-24T07:30:37;25.00;;;17.90;;
23578;SDS011;11967;50.852;4.400;2022-09-24T07:33:04;26.48;;;17.95;;
23578;SDS011;11967;50.852;4.400;2022-09-24T07:35:31;25.48;;;16.92;;
23578;SDS011;11967;50.852;4.400;2022-09-24T07:40:30;28.95;;;18.40;;
23578;SDS011;11967;50.852;4.400;2022-09-24T07:42:56;28.88;;;18.67;;
23578;SDS011;11967;50.852;4.400;2022-09-24T07:45:23;28.15;;;17.55;;
23578;SDS011;11967;50.852;4.400;2022-09-24T07:47:59;25.95;;;16.92;;
23578;SDS011;11967;50.852;4.400;2022-09-24T07:50:27;27.58;;;17.17;;
23578;SDS011;11967;50.852;4.400;2022-09-24T07:52:54;27.23;;;18.35;;
23578;SDS011;11967;50.852;4.400;2022-09-24T07:55:21;29.35;;;18.00;;
23578;SDS011;11967;50.852;4.400;2022-09-24T07:57:48;26.40;;;17.33;;
23578;SDS011;11967;50.852;4.400;2022-09-24T08:00:16;30.10;;;18.13;;
23578;SDS011;11967;50.852;4.400;2022-09-24T08:02:43;24.15;;;15.68;;
23578;SDS011;11967;50.852;4.400;2022-09-24T08:05:09;26.55;;;17.08;;
23578;SDS011;11967;50.852;4.400;2022-09-24T08:07:35;29.00;;;16.25;;
23578;SDS011;11967;50.852;4.400;2022-09-24T08:10:01;23.52;;;15.50;;
23578;SDS011;11967;50.852;4.400;2022-09-24T08:12:26;26.52;;;16.52;;
23578;SDS011;11967;50.852;4.400;2022-09-24T08:14:52;26.02;;;16.38;;
23578;SDS011;11967;50.852;4.400;2022-09-24T08:17:18;24.00;;;16.33;;
23578;SDS011;11967;50.852;4.400;2022-09-24T08:19:44;26.42;;;16.83;;
23578;SDS011;11967;50.852;4.400;2022-09-24T08:22:10;23.63;;;16.67;;
23578;SDS011;11967;50.852;4.400;2022-09-24T08:24:38;22.08;;;15.50;;
23578;SDS011;11967;50.852;4.400;2022-09-24T08:27:05;23.73;;;16.42;;
23578;SDS011;11967;50.852;4.400;2022-09-24T08:29:31;26.95;;;16.08;;
23578;SDS011;11967;50.852;4.400;2022-09-24T08:31:57;26.00;;;17.38;;
23578;SDS011;11967;50.852;4.400;2022-09-24T08:34:22;23.00;;;15.98;;
23578;SDS011;11967;50.852;4.400;2022-09-24T08:36:49;25.15;;;15.82;;
23578;SDS011;11967;50.852;4.400;2022-09-24T08:39:14;23.58;;;15.68;;
23578;SDS011;11967;50.852;4.400;2022-09-24T08:44:19;23.45;;;15.88;;
23578;SDS011;11967;50.852;4.400;2022-09-24T08:48:08;24.13;;;16.17;;
23578;SDS011;11967;50.852;4.400;2022-09-24T08:55:18;24.80;;;16.05;;
23578;SDS011;11967;50.852;4.400;2022-09-24T09:00:27;26.55;;;16.52;;
23578;SDS011;11967;50.852;4.400;2022-09-24T09:05:49;32.33;;;15.48;;
23578;SDS011;11967;50.852;4.400;2022-09-24T09:11:10;25.50;;;15.68;;
23578;SDS011;11967;50.852;4.400;2022-09-24T09:13:40;32.28;;;16.63;;
23578;SDS011;11967;50.852;4.400;2022-09-24T09:19:04;25.40;;;17.08;;
23578;SDS011;11967;50.852;4.400;2022-09-24T09:24:17;26.52;;;17.33;;
23578;SDS011;11967;50.852;4.400;2022-09-24T09:26:47;26.17;;;16.75;;
23578;SDS011;11967;50.852;4.400;2022-09-24T09:29:15;29.85;;;17.10;;
23578;SDS011;11967;50.852;4.400;2022-09-24T09:34:57;26.15;;;16.52;;
23578;SDS011;11967;50.852;4.400;2022-09-24T09:37:51;28.33;;;17.20;;
23578;SDS011;11967;50.852;4.400;2022-09-24T09:40:40;23.38;;;15.80;;
23578;SDS011;11967;50.852;4.400;2022-09-24T09:43:26;25.55;;;17.08;;
23578;SDS011;11967;50.852;4.400;2022-09-24T09:48:49;24.75;;;16.27;;
23578;SDS011;11967;50.852;4.400;2022-09-24T09:51:19;25.88;;;16.70;;
23578;SDS011;11967;50.852;4.400;2022-09-24T09:53:56;33.80;;;18.13;;
23578;SDS011;11967;50.852;4.400;2022-09-24T09:56:26;31.38;;;17.45;;
23578;SDS011;11967;50.852;4.400;2022-09-24T10:01:53;28.90;;;16.98;;
23578;SDS011;11967;50.852;4.400;2022-09-24T10:07:08;26.73;;;15.93;;
23578;SDS011;11967;50.852;4.400;2022-09-24T10:09:37;24.95;;;15.30;;
23578;SDS011;11967;50.852;4.400;2022-09-24T10:12:16;24.42;;;14.68;;
23578;SDS011;11967;50.852;4.400;2022-09-24T10:14:55;27.00;;;16.05;;
23578;SDS011;11967;50.852;4.400;2022-09-24T10:17:40;22.23;;;14.30;;
23578;SDS011;11967;50.852;4.400;2022-09-24T10:20:19;21.33;;;14.85;;
23578;SDS011;11967;50.852;4.400;2022-09-24T10:22:54;22.83;;;14.75;;
23578;SDS011;11967;50.852;4.400;2022-09-24T10:25:27;21.42;;;15.18;;
23578;SDS011;11967;50.852;4.400;2022-09-24T10:28:14;20.58;;;14.85;;
23578;SDS011;11967;50.852;4.400;2022-09-24T10:31:05;25.70;;;14.98;;
23578;SDS011;11967;50.852;4.400;2022-09-24T10:33:41;21.83;;;14.23;;
23578;SDS011;11967;50.852;4.400;2022-09-24T10:36:18;22.27;;;14.25;;
23578;SDS011;11967;50.852;4.400;2022-09-24T10:38:46;22.00;;;15.00;;
23578;SDS011;11967;50.852;4.400;2022-09-24T10:41:21;21.65;;;14.02;;
23578;SDS011;11967;50.852;4.400;2022-09-24T10:43:51;22.90;;;14.25;;
23578;SDS011;11967;50.852;4.400;2022-09-24T10:47:04;19.65;;;13.48;;
23578;SDS011;11967;50.852;4.400;2022-09-24T10:52:12;20.20;;;13.45;;
23578;SDS011;11967;50.852;4.400;2022-09-24T10:54:43;24.08;;;14.77;;
23578;SDS011;11967;50.852;4.400;2022-09-24T10:57:25;18.38;;;12.45;;
23578;SDS011;11967;50.852;4.400;2022-09-24T11:00:18;19.30;;;12.52;;
23578;SDS011;11967;50.852;4.400;2022-09-24T11:03:05;20.08;;;12.75;;
23578;SDS011;11967;50.852;4.400;2022-09-24T11:05:52;18.35;;;12.35;;
23578;SDS011;11967;50.852;4.400;2022-09-24T11:08:26;20.13;;;11.68;;
23578;SDS011;11967;50.852;4.400;2022-09-24T11:11:16;17.52;;;12.02;;
23578;SDS011;11967;50.852;4.400;2022-09-24T11:14:02;20.58;;;12.30;;
23578;SDS011;11967;50.852;4.400;2022-09-24T11:57:21;23.65;;;14.70;;
23578;SDS011;11967;50.852;4.400;2022-09-24T12:00:01;25.33;;;14.35;;
23578;SDS011;11967;50.852;4.400;2022-09-24T12:02:38;26.13;;;14.52;;
23578;SDS011;11967;50.852;4.400;2022-09-24T12:08:14;24.48;;;14.82;;
23578;SDS011;11967;50.852;4.400;2022-09-24T12:10:54;23.52;;;15.60;;
23578;SDS011;11967;50.852;4.400;2022-09-24T12:16:01;24.25;;;15.68;;
23578;SDS011;11967;50.852;4.400;2022-09-24T12:18:40;25.92;;;16.33;;
23578;SDS011;11967;50.852;4.400;2022-09-24T12:21:33;26.30;;;16.40;;
23578;SDS011;11967;50.852;4.400;2022-09-24T12:24:50;21.58;;;15.93;;
23578;SDS011;11967;50.852;4.400;2022-09-24T12:27:01;22.87;;;15.57;;
23578;SDS011;11967;50.852;4.400;2022-09-24T12:38:23;24.20;;;16.75;;
23578;SDS011;11967;50.852;4.400;2022-09-24T12:43:36;24.58;;;16.23;;
23578;SDS011;11967;50.852;4.400;2022-09-24T12:46:06;23.98;;;15.98;;
23578;SDS011;11967;50.852;4.400;2022-09-24T12:48:45;24.98;;;15.45;;
23578;SDS011;11967;50.852;4.400;2022-09-24T12:51:12;26.77;;;15.95;;
23578;SDS011;11967;50.852;4.400;2022-09-24T12:53:42;22.90;;;14.90;;
23578;SDS011;11967;50.852;4.400;2022-09-24T12:56:22;23.50;;;16.55;;
23578;SDS011;11967;50.852;4.400;2022-09-24T12:58:50;22.23;;;15.43;;
23578;SDS011;11967;50.852;4.400;2022-09-24T13:06:39;21.55;;;14.98;;
23578;SDS011;11967;50.852;4.400;2022-09-24T13:15:25;19.38;;;13.73;;
23578;SDS011;11967;50.852;4.400;2022-09-24T13:17:33;21.52;;;13.63;;
23578;SDS011;11967;50.852;4.400;2022-09-24T13:20:03;19.20;;;13.75;;
23578;SDS011;11967;50.852;4.400;2022-09-24T13:22:32;22.30;;;13.77;;
23578;SDS011;11967;50.852;4.400;2022-09-24T13:27:41;22.77;;;13.52;;
23578;SDS011;11967;50.852;4.400;2022-09-24T13:32:35;20.02;;;14.13;;
23578;SDS011;11967;50.852;4.400;2022-09-24T13:35:04;17.15;;;13.52;;
23578;SDS011;11967;50.852;4.400;2022-09-24T13:37:37;19.90;;;13.73;;
23578;SDS011;11967;50.852;4.400;2022-09-24T13:40:12;21.35;;;13.77;;
23578;SDS011;11967;50.852;4.400;2022-09-24T13:45:14;21.52;;;13.82;;
23578;SDS011;11967;50.852;4.400;2022-09-24T13:50:16;20.33;;;13.90;;
23578;SDS011;11967;50.852;4.400;2022-09-24T13:55:51;21.80;;;14.30;;
23578;SDS011;11967;50.852;4.400;2022-09-24T14:01:00;22.05;;;14.50;;
23578;SDS011;11967;50.852;4.400;2022-09-24T14:03:28;25.27;;;15.82;;
23578;SDS011;11967;50.852;4.400;2022-09-24T14:05:59;22.45;;;15.95;;
23578;SDS011;11967;50.852;4.400;2022-09-24T14:08:26;20.10;;;15.18;;
23578;SDS011;11967;50.852;4.400;2022-09-24T14:11:11;21.70;;;16.67;;
23578;SDS011;11967;50.852;4.400;2022-09-24T14:13:38;23.13;;;17.33;;
23578;SDS011;11967;50.852;4.400;2022-09-24T14:16:12;24.42;;;18.00;;
23578;SDS011;11967;50.852;4.400;2022-09-24T14:18:44;25.40;;;18.48;;
23578;SDS011;11967;50.852;4.400;2022-09-24T14:28:55;24.20;;;18.00;;
23578;SDS011;11967;50.852;4.400;2022-09-24T14:31:23;24.55;;;17.30;;
23578;SDS011;11967;50.852;4.400;2022-09-24T14:33:48;26.08;;;17.52;;
23578;SDS011;11967;50.852;4.400;2022-09-24T14:36:14;24.08;;;17.08;;
23578;SDS011;11967;50.852;4.400;2022-09-24T14:38:46;21.90;;;16.33;;
23578;SDS011;11967;50.852;4.400;2022-09-24T14:41:23;19.02;;;15.50;;
23578;SDS011;11967;50.852;4.400;2022-09-24T14:46:29;17.75;;;13.30;;
23578;SDS011;11967;50.852;4.400;2022-09-24T14:49:04;14.15;;;12.50;;
23578;SDS011;11967;50.852;4.400;2022-09-24T14:51:40;16.30;;;13.63;;
23578;SDS011;11967;50.852;4.400;2022-09-24T14:59:47;15.88;;;11.73;;
23578;SDS011;11967;50.852;4.400;2022-09-24T15:04:54;18.35;;;11.68;;
23578;SDS011;11967;50.852;4.400;2022-09-24T15:07:26;13.40;;;11.15;;
23578;SDS011;11967;50.852;4.400;2022-09-24T15:09:54;14.07;;;10.95;;
23578;SDS011;11967;50.852;4.400;2022-09-24T15:12:27;14.30;;;11.00;;
23578;SDS011;11967;50.852;4.400;2022-09-24T15:17:23;15.05;;;11.70;;
23578;SDS011;11967;50.852;4.400;2022-09-24T15:20:00;18.92;;;12.18;;
23578;SDS011;11967;50.852;4.400;2022-09-24T15:22:28;15.27;;;12.73;;
23578;SDS011;11967;50.852;4.400;2022-09-24T15:24:55;17.80;;;13.15;;
23578;SDS011;11967;50.852;4.400;2022-09-24T15:27:24;18.42;;;13.27;;
23578;SDS011;11967;50.852;4.400;2022-09-24T15:29:53;17.75;;;13.68;;
23578;SDS011;11967;50.852;4.400;2022-09-24T15:32:29;17.60;;;14.27;;
23578;SDS011;11967;50.852;4.400;2022-09-24T15:34:57;17.52;;;14.32;;
23578;SDS011;11967;50.852;4.400;2022-09-24T15:37:24;21.25;;;14.27;;
23578;SDS011;11967;50.852;4.400;2022-09-24T15:39:51;20.10;;;14.27;;
23578;SDS011;11967;50.852;4.400;2022-09-24T15:42:21;19.23;;;14.27;;
23578;SDS011;11967;50.852;4.400;2022-09-24T15:44:48;20.33;;;14.13;;
23578;SDS011;11967;50.852;4.400;2022-09-24T15:47:15;21.15;;;15.07;;
23578;SDS011;11967;50.852;4.400;2022-09-24T15:49:42;18.85;;;15.38;;
23578;SDS011;11967;50.852;4.400;2022-09-24T15:52:30;20.88;;;15.43;;
23578;SDS011;11967;50.852;4.400;2022-09-24T15:54:56;20.92;;;15.40;;
23578;SDS011;11967;50.852;4.400;2022-09-24T15:57:24;22.60;;;15.75;;
23578;SDS011;11967;50.852;4.400;2022-09-24T15:59:50;22.08;;;16.33;;
23578;SDS011;11967;50.852;4.400;2022-09-24T16:02:28;21.13;;;16.08;;
23578;SDS011;11967;50.852;4.400;2022-09-24T16:04:56;21.83;;;15.75;;
23578;SDS011;11967;50.852;4.400;2022-09-24T16:07:23;20.40;;;16.13;;
23578;SDS011;11967;50.852;4.400;2022-09-24T16:09:49;23.02;;;16.00;;
23578;SDS011;11967;50.852;4.400;2022-09-24T16:12:14;26.02;;;16.80;;
23578;SDS011;11967;50.852;4.400;2022-09-24T16:14:41;23.58;;;16.05;;
23578;SDS011;11967;50.852;4.400;2022-09-24T16:17:07;22.45;;;16.27;;
23578;SDS011;11967;50.852;4.400;2022-09-24T16:19:32;27.40;;;16.52;;
23578;SDS011;11967;50.852;4.400;2022-09-24T16:21:58;23.10;;;14.93;;
23578;SDS011;11967;50.852;4.400;2022-09-24T16:24:25;25.17;;;15.55;;
23578;SDS011;11967;50.852;4.400;2022-09-24T16:26:50;22.40;;;14.98;;
23578;SDS011;11967;50.852;4.400;2022-09-24T16:29:16;21.90;;;15.45;;
23578;SDS011;11967;50.852;4.400;2022-09-24T16:31:45;25.83;;;16.10;;
23578;SDS011;11967;50.852;4.400;2022-09-24T16:34:11;21.33;;;14.55;;
23578;SDS011;11967;50.852;4.400;2022-09-24T16:36:37;20.85;;;15.02;;
23578;SDS011;11967;50.852;4.400;2022-09-24T16:39:03;18.38;;;13.95;;
23578;SDS011;11967;50.852;4.400;2022-09-24T16:41:28;18.95;;;13.75;;
23578;SDS011;11967;50.852;4.400;2022-09-24T16:43:58;20.92;;;14.15;;
23578;SDS011;11967;50.852;4.400;2022-09-24T16:46:25;19.30;;;13.15;;
23578;SDS011;11967;50.852;4.400;2022-09-24T16:48:51;20.90;;;14.30;;
23578;SDS011;11967;50.852;4.400;2022-09-24T16:51:17;21.85;;;14.45;;
23578;SDS011;11967;50.852;4.400;2022-09-24T16:53:42;19.30;;;14.20;;
23578;SDS011;11967;50.852;4.400;2022-09-24T16:56:10;23.95;;;14.93;;
23578;SDS011;11967;50.852;4.400;2022-09-24T16:58:39;22.52;;;14.98;;
23578;SDS011;11967;50.852;4.400;2022-09-24T17:01:06;20.60;;;13.95;;
23578;SDS011;11967;50.852;4.400;2022-09-24T17:03:40;21.13;;;13.85;;
23578;SDS011;11967;50.852;4.400;2022-09-24T17:06:06;19.88;;;13.85;;
23578;SDS011;11967;50.852;4.400;2022-09-24T17:08:33;21.17;;;14.57;;
23578;SDS011;11967;50.852;4.400;2022-09-24T17:11:19;21.98;;;14.45;;
23578;SDS011;11967;50.852;4.400;2022-09-24T17:13:45;21.90;;;15.02;;
23578;SDS011;11967;50.852;4.400;2022-09-24T17:16:12;22.08;;;14.68;;
23578;SDS011;11967;50.852;4.400;2022-09-24T17:18:38;23.58;;;14.40;;